Time;durP1;ratioP1;P1;durP2;ratioP2;P2;SDS_P1;SDS_P2;PMS_P1;PMS_P2;Temp;Humidity;BMP_temperature;BMP_pressure;BME280_temperature;BME280_humidity;BME280_pressure;Samples;Min_cycle;Max_cycle;Signal;HPM_P1;HPM_P2
2022/03/23 00:00:17;;;;;;;25.40;14.45;;;;;;;;;;5095727;28;20223;-71
2022/03/23 00:02:45;;;;;;;25.05;15.13;;;;;;;;;;5095841;28;20239;-71
2022/03/23 00:05:12;;;;;;;21.20;14.55;;;;;;;;;;5095518;28;20196;-71
2022/03/23 00:07:39;;;;;;;23.13;15.15;;;;;;;;;;5095334;28;20673;-70
2022/03/23 00:10:07;;;;;;;23.10;15.27;;;;;;;;;;5095102;28;20203;-70
2022/03/23 00:12:34;;;;;;;22.20;15.70;;;;;;;;;;5095191;28;20677;-70
2022/03/23 00:15:03;;;;;;;25.95;15.80;;;;;;;;;;5095230;28;20199;-70
2022/03/23 00:17:30;;;;;;;21.30;14.77;;;;;;;;;;5095086;28;20281;-71
2022/03/23 00:19:57;;;;;;;23.50;15.75;;;;;;;;;;5095222;28;20290;-70
2022/03/23 00:22:27;;;;;;;25.02;15.45;;;;;;;;;;5094896;28;20286;-71
2022/03/23 00:24:56;;;;;;;24.83;14.27;;;;;;;;;;5095258;28;20282;-71
2022/03/23 00:27:23;;;;;;;23.48;15.68;;;;;;;;;;5095230;28;20255;-70
2022/03/23 00:29:50;;;;;;;27.88;15.25;;;;;;;;;;5094752;28;20654;-70
2022/03/23 00:32:19;;;;;;;26.60;14.50;;;;;;;;;;5094788;28;20205;-70
2022/03/23 00:34:46;;;;;;;18.23;13.98;;;;;;;;;;5094972;28;20199;-70
2022/03/23 00:37:14;;;;;;;26.40;14.15;;;;;;;;;;5094957;28;20223;-70
2022/03/23 00:39:41;;;;;;;23.25;15.65;;;;;;;;;;5094912;28;20200;-71
2022/03/23 00:42:08;;;;;;;23.30;14.30;;;;;;;;;;5094941;28;20286;-70
2022/03/23 00:44:35;;;;;;;24.10;14.85;;;;;;;;;;5094450;28;20196;-69
2022/03/23 00:47:03;;;;;;;23.40;15.55;;;;;;;;;;5095069;28;20612;-70
2022/03/23 00:49:31;;;;;;;23.38;15.88;;;;;;;;;;5094706;28;20195;-70
2022/03/23 00:51:58;;;;;;;22.58;15.55;;;;;;;;;;5094667;28;20207;-71
2022/03/23 00:54:26;;;;;;;22.15;14.40;;;;;;;;;;5094260;28;20199;-70
2022/03/23 00:56:53;;;;;;;27.08;17.52;;;;;;;;;;5094554;28;20268;-70
2022/03/23 00:59:22;;;;;;;22.40;16.00;;;;;;;;;;5094228;28;20203;-70
2022/03/23 01:01:49;;;;;;;25.83;16.40;;;;;;;;;;5094856;28;20202;-69
2022/03/23 01:04:16;;;;;;;22.50;15.63;;;;;;;;;;5094262;28;20565;-70
2022/03/23 01:06:45;;;;;;;23.77;15.77;;;;;;;;;;5094428;28;20196;-69
2022/03/23 01:09:12;;;;;;;23.38;16.33;;;;;;;;;;5093987;28;20199;-71
2022/03/23 01:11:40;;;;;;;24.20;15.73;;;;;;;;;;5094441;28;20548;-70
2022/03/23 01:14:08;;;;;;;20.48;14.75;;;;;;;;;;5093799;28;20194;-69
2022/03/23 01:16:35;;;;;;;24.73;16.55;;;;;;;;;;5094615;28;20219;-70
2022/03/23 01:19:02;;;;;;;24.40;15.82;;;;;;;;;;5094246;28;20197;-69
2022/03/23 01:21:30;;;;;;;24.15;16.73;;;;;;;;;;5094215;28;20200;-70
2022/03/23 01:23:58;;;;;;;27.10;16.50;;;;;;;;;;5094231;28;20199;-70
2022/03/23 01:26:25;;;;;;;23.13;16.08;;;;;;;;;;5093942;28;20634;-70
2022/03/23 01:28:52;;;;;;;23.42;16.05;;;;;;;;;;5093708;28;20207;-70
2022/03/23 01:31:20;;;;;;;24.88;16.60;;;;;;;;;;5094021;28;20552;-70
2022/03/23 01:33:47;;;;;;;24.38;16.25;;;;;;;;;;5093566;28;20277;-72
2022/03/23 01:36:14;;;;;;;23.25;15.15;;;;;;;;;;5093851;28;20213;-70
2022/03/23 01:38:41;;;;;;;21.25;14.80;;;;;;;;;;5094492;28;20553;-70
2022/03/23 01:41:11;;;;;;;28.90;16.48;;;;;;;;;;5093793;28;20205;-70
2022/03/23 01:43:38;;;;;;;28.63;15.88;;;;;;;;;;5093821;28;20204;-69
2022/03/23 01:46:05;;;;;;;26.60;16.83;;;;;;;;;;5093925;28;20242;-69
2022/03/23 01:48:32;;;;;;;21.85;15.98;;;;;;;;;;5093825;28;20196;-69
2022/03/23 01:50:59;;;;;;;25.58;16.27;;;;;;;;;;5093701;28;20202;-70
2022/03/23 01:53:26;;;;;;;23.00;16.23;;;;;;;;;;5093753;28;20196;-69
2022/03/23 01:55:53;;;;;;;23.42;17.02;;;;;;;;;;5093280;28;20190;-69
2022/03/23 01:58:22;;;;;;;21.00;16.05;;;;;;;;;;5093573;28;20665;-69
2022/03/23 02:00:49;;;;;;;25.80;15.90;;;;;;;;;;5093900;28;20197;-69
2022/03/23 02:03:17;;;;;;;23.20;16.10;;;;;;;;;;5093584;28;20200;-70
2022/03/23 02:05:44;;;;;;;27.00;16.02;;;;;;;;;;5093620;28;20562;-70
2022/03/23 02:08:12;;;;;;;22.00;15.30;;;;;;;;;;5093589;28;20199;-69
2022/03/23 02:10:39;;;;;;;26.50;17.00;;;;;;;;;;5093201;28;20249;-70
2022/03/23 02:13:06;;;;;;;27.17;16.77;;;;;;;;;;5093217;28;20198;-69
2022/03/23 02:15:35;;;;;;;27.67;17.30;;;;;;;;;;5093122;28;20244;-69
2022/03/23 02:18:02;;;;;;;25.63;16.35;;;;;;;;;;5093699;28;20310;-70
2022/03/23 02:20:30;;;;;;;27.80;16.38;;;;;;;;;;5093368;28;20287;-70
2022/03/23 02:22:59;;;;;;;22.42;15.95;;;;;;;;;;5093156;28;20204;-70
2022/03/23 02:25:28;;;;;;;26.38;16.23;;;;;;;;;;5093358;28;20204;-70
2022/03/23 02:27:56;;;;;;;20.67;15.95;;;;;;;;;;5093081;28;20206;-70
2022/03/23 02:30:23;;;;;;;26.13;16.20;;;;;;;;;;5093717;28;20233;-70
2022/03/23 02:32:50;;;;;;;27.17;16.60;;;;;;;;;;5094073;28;20306;-70
2022/03/23 02:35:18;;;;;;;26.33;17.38;;;;;;;;;;5092962;28;20197;-70
2022/03/23 02:37:45;;;;;;;26.00;16.73;;;;;;;;;;5092962;28;20631;-69
2022/03/23 02:40:14;;;;;;;26.02;17.10;;;;;;;;;;5092877;28;20205;-69
2022/03/23 02:42:41;;;;;;;28.98;18.30;;;;;;;;;;5093595;28;20191;-70
2022/03/23 02:45:10;;;;;;;30.20;18.40;;;;;;;;;;5094680;28;20231;-69
2022/03/23 02:47:37;;;;;;;28.80;19.75;;;;;;;;;;5097118;28;20276;-69
2022/03/23 02:50:05;;;;;;;29.05;17.15;;;;;;;;;;5097080;28;20195;-69
2022/03/23 02:52:32;;;;;;;26.80;16.48;;;;;;;;;;5096718;28;20196;-69
2022/03/23 03:03:37;;;;;;;26.35;17.05;;;;;;;;;;5096615;28;20552;-69
2022/03/23 03:06:04;;;;;;;34.65;17.23;;;;;;;;;;5096370;28;20199;-71
2022/03/23 03:08:47;;;;;;;24.00;16.83;;;;;;;;;;5096720;28;20190;-70
2022/03/23 03:11:15;;;;;;;22.67;15.82;;;;;;;;;;5096961;28;20191;-70
2022/03/23 03:13:44;;;;;;;22.13;15.73;;;;;;;;;;5096577;28;20198;-70
2022/03/23 03:16:11;;;;;;;27.95;16.48;;;;;;;;;;5096587;28;20203;-69
2022/03/23 03:18:38;;;;;;;21.67;15.88;;;;;;;;;;5096786;28;20195;-70
2022/03/23 03:21:07;;;;;;;28.83;17.70;;;;;;;;;;5096568;28;20195;-69
2022/03/23 03:23:34;;;;;;;26.35;17.80;;;;;;;;;;5096677;28;20192;-70
2022/03/23 03:26:05;;;;;;;27.52;18.00;;;;;;;;;;5096001;28;20692;-70
2022/03/23 03:28:32;;;;;;;24.17;16.77;;;;;;;;;;5096484;28;20547;-70
2022/03/23 03:34:04;;;;;;;27.63;17.05;;;;;;;;;;5096016;28;20158;-70
2022/03/23 03:36:32;;;;;;;29.15;18.80;;;;;;;;;;5096354;28;20695;-69
2022/03/23 03:38:59;;;;;;;30.67;19.52;;;;;;;;;;5095845;28;20685;-70
2022/03/23 03:41:26;;;;;;;23.52;16.48;;;;;;;;;;5095632;28;20644;-70
2022/03/23 03:43:54;;;;;;;27.25;16.77;;;;;;;;;;5095769;28;20738;-69
2022/03/23 03:46:21;;;;;;;26.15;16.85;;;;;;;;;;5095974;28;20227;-69
2022/03/23 03:48:49;;;;;;;32.25;19.80;;;;;;;;;;5095979;28;20568;-70
2022/03/23 03:51:18;;;;;;;23.98;17.80;;;;;;;;;;5096315;28;20195;-69
2022/03/23 03:53:45;;;;;;;23.75;16.80;;;;;;;;;;5096271;28;20191;-69
2022/03/23 03:56:12;;;;;;;25.48;17.80;;;;;;;;;;5094987;28;20203;-69
2022/03/23 03:58:40;;;;;;;22.85;16.02;;;;;;;;;;5095810;28;20620;-69
2022/03/23 04:01:09;;;;;;;29.20;17.70;;;;;;;;;;5095645;28;20539;-69
2022/03/23 04:03:37;;;;;;;26.63;17.55;;;;;;;;;;5096077;28;20225;-69
2022/03/23 04:06:06;;;;;;;26.88;18.20;;;;;;;;;;5095858;28;20195;-69
2022/03/23 04:08:35;;;;;;;24.55;16.05;;;;;;;;;;5095234;28;20230;-70
2022/03/23 04:11:02;;;;;;;23.85;17.52;;;;;;;;;;5095509;28;20642;-70
2022/03/23 04:13:30;;;;;;;31.23;19.08;;;;;;;;;;5095512;28;20205;-70
2022/03/23 04:15:57;;;;;;;26.98;19.02;;;;;;;;;;5095074;28;20651;-70
2022/03/23 04:18:24;;;;;;;26.45;17.25;;;;;;;;;;5095260;28;20569;-70
2022/03/23 04:20:51;;;;;;;28.13;17.75;;;;;;;;;;5095052;28;20201;-69
2022/03/23 04:23:19;;;;;;;26.35;18.95;;;;;;;;;;5095246;28;20229;-69
2022/03/23 04:25:47;;;;;;;27.52;16.42;;;;;;;;;;5095466;28;20196;-71
2022/03/23 04:28:14;;;;;;;32.45;19.27;;;;;;;;;;5095303;28;20199;-69
2022/03/23 04:30:42;;;;;;;25.90;17.92;;;;;;;;;;5095186;28;20294;-70
2022/03/23 04:33:09;;;;;;;31.30;19.30;;;;;;;;;;5095019;28;20196;-70
2022/03/23 04:35:37;;;;;;;29.00;19.25;;;;;;;;;;5095114;28;20202;-69
2022/03/23 04:38:05;;;;;;;26.25;17.30;;;;;;;;;;5094510;28;20216;-69
2022/03/23 04:40:33;;;;;;;25.10;17.48;;;;;;;;;;5095002;28;20210;-69
2022/03/23 04:43:01;;;;;;;26.95;17.65;;;;;;;;;;5094522;28;20197;-69
2022/03/23 04:45:29;;;;;;;31.92;19.00;;;;;;;;;;5094772;28;20235;-69
2022/03/23 04:47:56;;;;;;;26.38;18.08;;;;;;;;;;5094777;28;20195;-69
2022/03/23 04:50:23;;;;;;;25.00;17.25;;;;;;;;;;5095045;28;20196;-69
2022/03/23 04:52:52;;;;;;;27.83;16.70;;;;;;;;;;5094319;28;20201;-69
2022/03/23 04:55:19;;;;;;;25.80;16.60;;;;;;;;;;5094756;28;20594;-69
2022/03/23 04:57:47;;;;;;;34.38;18.05;;;;;;;;;;5094526;28;20299;-69
2022/03/23 05:00:16;;;;;;;29.55;19.55;;;;;;;;;;5094582;28;20282;-75
2022/03/23 05:02:44;;;;;;;31.25;18.85;;;;;;;;;;5094159;28;20195;-70
2022/03/23 05:05:12;;;;;;;28.73;19.17;;;;;;;;;;5094192;28;20277;-70
2022/03/23 05:07:39;;;;;;;28.63;18.63;;;;;;;;;;5093702;28;20206;-69
2022/03/23 05:10:08;;;;;;;30.48;18.00;;;;;;;;;;5094109;28;20196;-70
2022/03/23 05:12:36;;;;;;;27.70;17.80;;;;;;;;;;5094313;28;20203;-71
2022/03/23 05:15:04;;;;;;;40.63;18.95;;;;;;;;;;5094402;28;20229;-73
2022/03/23 05:17:33;;;;;;;29.52;17.77;;;;;;;;;;5094340;28;20231;-72
2022/03/23 05:20:01;;;;;;;29.10;18.48;;;;;;;;;;5094154;28;20198;-72
2022/03/23 05:22:28;;;;;;;30.45;20.52;;;;;;;;;;5094472;28;20259;-72
2022/03/23 05:24:56;;;;;;;24.73;18.13;;;;;;;;;;5093347;28;20201;-71
2022/03/23 05:27:23;;;;;;;36.90;17.05;;;;;;;;;;5093274;28;20554;-71
2022/03/23 05:29:50;;;;;;;28.77;17.13;;;;;;;;;;5093478;28;20289;-70
2022/03/23 05:32:18;;;;;;;30.45;19.13;;;;;;;;;;5092747;28;20560;-71
2022/03/23 05:34:47;;;;;;;28.40;19.33;;;;;;;;;;5093744;28;20198;-71
2022/03/23 05:37:14;;;;;;;31.00;17.67;;;;;;;;;;5093031;28;20737;-71
2022/03/23 05:39:41;;;;;;;31.10;19.88;;;;;;;;;;5093897;28;20191;-71
2022/03/23 05:42:09;;;;;;;33.53;21.63;;;;;;;;;;5091736;28;20222;-71
2022/03/23 05:44:36;;;;;;;30.33;19.02;;;;;;;;;;5093105;28;20226;-71
2022/03/23 05:47:04;;;;;;;34.05;20.20;;;;;;;;;;5093676;28;20229;-71
2022/03/23 05:49:32;;;;;;;27.27;18.42;;;;;;;;;;5092637;28;20198;-72
2022/03/23 05:52:01;;;;;;;32.15;18.75;;;;;;;;;;5093149;28;20205;-71
2022/03/23 05:54:28;;;;;;;31.30;19.45;;;;;;;;;;5092434;28;20648;-71
2022/03/23 05:56:55;;;;;;;29.58;19.85;;;;;;;;;;5093101;28;20199;-71
2022/03/23 05:59:22;;;;;;;32.40;20.20;;;;;;;;;;5093186;28;20655;-71
2022/03/23 06:01:50;;;;;;;28.52;19.67;;;;;;;;;;5093609;28;20293;-71
2022/03/23 06:04:17;;;;;;;36.40;19.58;;;;;;;;;;5093407;28;20678;-72
2022/03/23 06:06:44;;;;;;;28.83;18.80;;;;;;;;;;5093537;28;20656;-71
2022/03/23 06:09:13;;;;;;;29.17;19.70;;;;;;;;;;5093080;28;20244;-72
2022/03/23 06:11:40;;;;;;;33.13;19.38;;;;;;;;;;5093564;28;20264;-71
2022/03/23 06:14:07;;;;;;;33.85;20.00;;;;;;;;;;5092385;28;20202;-71
2022/03/23 06:16:34;;;;;;;33.05;19.42;;;;;;;;;;5093205;28;20205;-72
2022/03/23 06:19:02;;;;;;;32.53;20.95;;;;;;;;;;5095211;28;20219;-71
2022/03/23 06:21:29;;;;;;;36.75;22.05;;;;;;;;;;5097237;28;20195;-72
2022/03/23 06:23:57;;;;;;;35.38;21.02;;;;;;;;;;5097214;28;20234;-71
2022/03/23 06:26:25;;;;;;;34.72;20.70;;;;;;;;;;5097240;28;20671;-71
2022/03/23 06:28:53;;;;;;;32.05;18.98;;;;;;;;;;5097409;28;20220;-71
2022/03/23 06:31:20;;;;;;;33.78;20.23;;;;;;;;;;5097229;28;20755;-71
2022/03/23 06:33:48;;;;;;;27.17;19.63;;;;;;;;;;5097009;28;20195;-72
2022/03/23 06:36:15;;;;;;;35.15;19.35;;;;;;;;;;5097041;28;20292;-71
2022/03/23 06:38:42;;;;;;;31.75;20.38;;;;;;;;;;5096723;28;20215;-71
2022/03/23 06:41:09;;;;;;;32.13;20.90;;;;;;;;;;5097004;28;20195;-72
2022/03/23 06:43:38;;;;;;;28.20;18.65;;;;;;;;;;5096825;28;20204;-71
2022/03/23 06:46:05;;;;;;;37.03;20.90;;;;;;;;;;5096640;28;20219;-72
2022/03/23 06:48:32;;;;;;;32.38;21.35;;;;;;;;;;5096782;28;20195;-73
2022/03/23 06:50:59;;;;;;;36.10;20.02;;;;;;;;;;5096868;28;20203;-72
2022/03/23 06:53:27;;;;;;;36.75;22.38;;;;;;;;;;5096959;28;20210;-71
2022/03/23 06:55:54;;;;;;;30.00;18.15;;;;;;;;;;5096640;28;20226;-71
2022/03/23 06:58:22;;;;;;;37.95;22.00;;;;;;;;;;5096750;28;20226;-71
2022/03/23 07:00:50;;;;;;;36.97;19.55;;;;;;;;;;5096877;28;20201;-72
2022/03/23 07:03:17;;;;;;;41.10;26.27;;;;;;;;;;5096794;28;20206;-71
2022/03/23 07:05:44;;;;;;;39.40;22.42;;;;;;;;;;5096403;28;20195;-72
2022/03/23 07:10:56;;;;;;;36.00;24.65;;;;;;;;;;5096492;28;20603;-71
2022/03/23 07:13:24;;;;;;;35.20;22.38;;;;;;;;;;5096255;28;20230;-71
2022/03/23 07:15:52;;;;;;;34.30;20.70;;;;;;;;;;5096701;28;20669;-72
2022/03/23 07:18:19;;;;;;;39.13;23.10;;;;;;;;;;5096126;28;20214;-71
2022/03/23 07:20:47;;;;;;;35.38;20.52;;;;;;;;;;5096279;28;20201;-71
2022/03/23 07:23:14;;;;;;;37.72;21.08;;;;;;;;;;5096422;28;20196;-71
2022/03/23 07:25:41;;;;;;;31.15;19.73;;;;;;;;;;5096347;28;20193;-72
2022/03/23 07:28:08;;;;;;;32.08;21.42;;;;;;;;;;5096385;28;20296;-72
2022/03/23 07:30:37;;;;;;;29.65;20.00;;;;;;;;;;5095380;28;20251;-72
2022/03/23 07:33:05;;;;;;;27.98;19.92;;;;;;;;;;5095919;28;20196;-71
2022/03/23 07:35:33;;;;;;;30.90;20.65;;;;;;;;;;5095834;28;20203;-72
2022/03/23 07:38:00;;;;;;;29.60;20.30;;;;;;;;;;5095759;28;20209;-72
2022/03/23 07:40:27;;;;;;;33.20;20.20;;;;;;;;;;5095965;28;20622;-71
2022/03/23 07:42:54;;;;;;;34.15;19.75;;;;;;;;;;5095768;28;20209;-71
2022/03/23 07:45:22;;;;;;;48.60;23.35;;;;;;;;;;5095822;28;20571;-72
2022/03/23 07:47:49;;;;;;;34.45;21.02;;;;;;;;;;5095968;28;20231;-71
2022/03/23 07:50:17;;;;;;;29.52;22.10;;;;;;;;;;5095496;28;20757;-72
2022/03/23 07:52:45;;;;;;;35.03;21.10;;;;;;;;;;5095477;28;20191;-71
2022/03/23 07:55:12;;;;;;;29.95;20.55;;;;;;;;;;5095941;28;20557;-71
2022/03/23 07:57:39;;;;;;;30.13;20.83;;;;;;;;;;5095346;28;20195;-71
2022/03/23 08:00:07;;;;;;;34.40;21.02;;;;;;;;;;5095454;28;20210;-71
2022/03/23 08:02:34;;;;;;;34.20;20.08;;;;;;;;;;5095350;28;20564;-71
2022/03/23 08:05:01;;;;;;;38.03;20.60;;;;;;;;;;5095523;28;20230;-71
2022/03/23 08:07:30;;;;;;;35.20;21.05;;;;;;;;;;5095213;28;20199;-71
2022/03/23 08:09:57;;;;;;;29.65;21.27;;;;;;;;;;5095731;28;20227;-72
2022/03/23 08:12:24;;;;;;;33.33;21.35;;;;;;;;;;5095468;28;20282;-73
2022/03/23 08:14:51;;;;;;;30.88;20.60;;;;;;;;;;5095080;28;20206;-73
2022/03/23 08:17:18;;;;;;;29.60;22.45;;;;;;;;;;5095301;28;20195;-72
2022/03/23 08:20:32;;;;;;;39.40;22.70;;;;;;;;;;5094842;28;20231;-72
2022/03/23 08:22:34;;;;;;;30.30;21.73;;;;;;;;;;5095194;28;20196;-72
2022/03/23 08:25:01;;;;;;;35.22;22.85;;;;;;;;;;5094945;28;20278;-73
2022/03/23 08:27:29;;;;;;;36.42;21.17;;;;;;;;;;5095234;28;20199;-73
2022/03/23 08:29:56;;;;;;;31.23;22.70;;;;;;;;;;5095733;28;20231;-72
2022/03/23 08:32:26;;;;;;;32.13;21.83;;;;;;;;;;5094859;28;20202;-73
2022/03/23 08:34:53;;;;;;;34.33;21.92;;;;;;;;;;5094965;28;20200;-73
2022/03/23 08:37:20;;;;;;;36.78;22.85;;;;;;;;;;5095017;28;20204;-73
2022/03/23 08:39:49;;;;;;;38.38;23.60;;;;;;;;;;5094674;28;20220;-73
2022/03/23 08:42:16;;;;;;;33.35;22.25;;;;;;;;;;5094914;28;20200;-73
2022/03/23 08:44:45;;;;;;;41.60;22.60;;;;;;;;;;5094314;28;20229;-72
2022/03/23 08:47:12;;;;;;;38.40;25.60;;;;;;;;;;5094906;28;20438;-73
2022/03/23 08:49:39;;;;;;;33.25;22.38;;;;;;;;;;5094822;28;20193;-72
2022/03/23 08:52:07;;;;;;;31.80;21.88;;;;;;;;;;5094614;28;20197;-72
2022/03/23 08:54:34;;;;;;;38.22;23.95;;;;;;;;;;5094275;28;20222;-72
2022/03/23 08:57:03;;;;;;;36.00;20.92;;;;;;;;;;5094118;28;20193;-72
2022/03/23 08:59:31;;;;;;;29.27;21.90;;;;;;;;;;5094330;28;20252;-72
2022/03/23 09:01:58;;;;;;;33.92;24.35;;;;;;;;;;5094266;28;20451;-72
2022/03/23 09:04:25;;;;;;;28.52;20.52;;;;;;;;;;5094331;28;20193;-72
2022/03/23 09:06:53;;;;;;;33.28;22.25;;;;;;;;;;5093848;28;20296;-72
2022/03/23 09:09:20;;;;;;;30.10;21.47;;;;;;;;;;5094255;28;20568;-72
2022/03/23 09:11:47;;;;;;;34.25;20.95;;;;;;;;;;5093806;28;20443;-72
2022/03/23 09:14:15;;;;;;;35.70;22.17;;;;;;;;;;5093218;28;20192;-73
2022/03/23 09:16:43;;;;;;;35.00;24.07;;;;;;;;;;5093812;28;20297;-74
2022/03/23 09:19:12;;;;;;;36.75;26.58;;;;;;;;;;5094038;28;20571;-72
2022/03/23 09:21:39;;;;;;;30.00;21.13;;;;;;;;;;5093682;28;20292;-72
2022/03/23 09:24:07;;;;;;;28.33;19.13;;;;;;;;;;5093724;28;20445;-72
2022/03/23 09:26:34;;;;;;;34.40;21.03;;;;;;;;;;5093811;28;20887;-72
2022/03/23 09:29:01;;;;;;;34.60;21.70;;;;;;;;;;5093898;28;20547;-73
2022/03/23 09:31:30;;;;;;;31.27;21.27;;;;;;;;;;5093445;28;20443;-74
2022/03/23 09:33:57;;;;;;;28.50;21.97;;;;;;;;;;5093814;28;20446;-72
2022/03/23 09:39:09;;;;;;;34.83;21.40;;;;;;;;;;5093647;28;20473;-72
2022/03/23 09:41:37;;;;;;;25.83;20.30;;;;;;;;;;5093365;28;20501;-72
2022/03/23 09:44:05;;;;;;;26.83;19.73;;;;;;;;;;5093346;28;20465;-74
2022/03/23 09:46:33;;;;;;;27.00;19.27;;;;;;;;;;5093624;28;20470;-73
2022/03/23 09:49:01;;;;;;;25.60;20.43;;;;;;;;;;5093683;28;20795;-73
2022/03/23 09:51:29;;;;;;;30.73;20.67;;;;;;;;;;5093683;28;20449;-73
2022/03/23 09:53:57;;;;;;;37.80;26.47;;;;;;;;;;5093036;28;20802;-72
2022/03/23 09:56:24;;;;;;;30.23;20.77;;;;;;;;;;5093825;28;20872;-73
2022/03/23 09:58:52;;;;;;;28.30;19.87;;;;;;;;;;5093285;28;20553;-72
2022/03/23 10:01:38;;;;;;;30.33;21.40;;;;;;;;;;5093407;28;20444;-72
2022/03/23 10:04:29;;;;;;;28.20;20.43;;;;;;;;;;5093199;28;20450;-72
2022/03/23 10:07:00;;;;;;;28.97;20.30;;;;;;;;;;5093054;28;20440;-72
2022/03/23 10:09:46;;;;;;;26.80;20.00;;;;;;;;;;5093541;28;20432;-73
2022/03/23 10:12:32;;;;;;;24.23;18.87;;;;;;;;;;5093086;28;20478;-72
2022/03/23 10:15:32;;;;;;;28.00;20.30;;;;;;;;;;5093056;28;20448;-72
2022/03/23 10:18:18;;;;;;;28.73;20.63;;;;;;;;;;5093383;28;20475;-72
2022/03/23 10:20:47;;;;;;;28.67;19.90;;;;;;;;;;5093301;28;20521;-72
2022/03/23 10:23:14;;;;;;;29.80;21.20;;;;;;;;;;5092942;28;20520;-72
2022/03/23 10:25:43;;;;;;;28.60;21.37;;;;;;;;;;5094008;28;20433;-72
2022/03/23 10:28:14;;;;;;;31.43;20.17;;;;;;;;;;5092975;28;20986;-73
2022/03/23 10:30:44;;;;;;;36.17;20.70;;;;;;;;;;5093347;28;20439;-73
2022/03/23 10:33:18;;;;;;;30.00;21.23;;;;;;;;;;5092669;28;20530;-73
2022/03/23 10:35:47;;;;;;;28.43;20.33;;;;;;;;;;5093354;28;20492;-72
2022/03/23 10:38:15;;;;;;;32.40;22.17;;;;;;;;;;5093204;28;20439;-74
2022/03/23 10:40:43;;;;;;;28.50;21.80;;;;;;;;;;5092902;28;20486;-72
2022/03/23 10:43:10;;;;;;;31.70;21.43;;;;;;;;;;5092825;28;20486;-72
2022/03/23 10:45:38;;;;;;;27.07;22.80;;;;;;;;;;5092640;28;20472;-73
2022/03/23 10:48:09;;;;;;;27.30;21.30;;;;;;;;;;5093019;28;20440;-73
2022/03/23 10:50:36;;;;;;;29.57;22.43;;;;;;;;;;5092853;28;20448;-73
2022/03/23 10:53:06;;;;;;;27.20;22.10;;;;;;;;;;5093077;28;20447;-73
2022/03/23 10:55:34;;;;;;;32.47;22.97;;;;;;;;;;5093637;28;20420;-72
2022/03/23 11:01:07;;;;;;;34.53;20.70;;;;;;;;;;5092896;28;20414;-73
2022/03/23 11:03:39;;;;;;;32.97;25.10;;;;;;;;;;5092668;28;20966;-72
2022/03/23 11:06:07;;;;;;;32.53;21.80;;;;;;;;;;5094348;28;20441;-73
2022/03/23 11:08:35;;;;;;;28.60;21.70;;;;;;;;;;5096166;28;20455;-73
2022/03/23 11:16:38;;;;;;;32.03;21.60;;;;;;;;;;5096321;28;20896;-73
2022/03/23 11:19:08;;;;;;;32.67;21.90;;;;;;;;;;5096387;28;20486;-73
2022/03/23 11:21:55;;;;;;;26.30;21.13;;;;;;;;;;5096791;28;20443;-73
2022/03/23 11:24:24;;;;;;;32.77;20.50;;;;;;;;;;5096495;28;20416;-74
2022/03/23 11:26:52;;;;;;;30.67;22.07;;;;;;;;;;5096571;28;20531;-73
2022/03/23 11:29:19;;;;;;;27.90;19.90;;;;;;;;;;5096204;28;20445;-73
2022/03/23 11:31:47;;;;;;;27.73;19.93;;;;;;;;;;5096107;28;20951;-73
2022/03/23 11:34:15;;;;;;;34.03;19.90;;;;;;;;;;5095680;28;20479;-73
2022/03/23 11:36:43;;;;;;;29.83;23.80;;;;;;;;;;5096103;28;20446;-73
2022/03/23 11:39:12;;;;;;;28.50;20.30;;;;;;;;;;5095934;28;20476;-73
2022/03/23 11:41:43;;;;;;;25.93;21.03;;;;;;;;;;5095933;28;20461;-73
2022/03/23 11:44:14;;;;;;;28.50;21.90;;;;;;;;;;5095748;28;20427;-73
2022/03/23 11:46:41;;;;;;;35.70;22.90;;;;;;;;;;5095364;28;20479;-73
2022/03/23 11:49:14;;;;;;;26.33;21.13;;;;;;;;;;5095779;28;20443;-73
2022/03/23 11:52:00;;;;;;;29.07;19.20;;;;;;;;;;5095808;28;20447;-74
2022/03/23 11:55:36;;;;;;;33.67;20.90;;;;;;;;;;5095352;28;20447;-73
2022/03/23 11:57:20;;;;;;;34.73;22.30;;;;;;;;;;5095634;28;20823;-73
2022/03/23 11:59:48;;;;;;;32.50;20.93;;;;;;;;;;5095307;28;20486;-73
2022/03/23 12:02:18;;;;;;;32.90;21.80;;;;;;;;;;5095522;28;20933;-73
2022/03/23 12:04:46;;;;;;;26.33;21.13;;;;;;;;;;5095535;28;20424;-73
2022/03/23 12:07:15;;;;;;;29.37;21.27;;;;;;;;;;5095525;28;20443;-73
2022/03/23 12:09:44;;;;;;;29.97;22.73;;;;;;;;;;5094954;28;20445;-73
2022/03/23 12:12:15;;;;;;;28.83;22.37;;;;;;;;;;5095406;28;20447;-73
2022/03/23 12:14:44;;;;;;;36.10;24.10;;;;;;;;;;5095426;28;20444;-73
2022/03/23 12:17:21;;;;;;;32.63;23.20;;;;;;;;;;5094895;28;20514;-73
2022/03/23 12:20:12;;;;;;;34.93;23.10;;;;;;;;;;5094749;28;20467;-73
2022/03/23 12:23:00;;;;;;;37.27;26.07;;;;;;;;;;5080288;28;20452;-72
2022/03/23 12:25:30;;;;;;;31.70;23.60;;;;;;;;;;5094826;28;20467;-73
2022/03/23 12:28:02;;;;;;;29.60;21.90;;;;;;;;;;5095275;28;20436;-74
2022/03/23 12:30:38;;;;;;;26.77;20.33;;;;;;;;;;5095311;28;20927;-72
2022/03/23 12:33:10;;;;;;;31.50;23.77;;;;;;;;;;5094568;28;20432;-73
2022/03/23 12:35:37;;;;;;;27.60;20.87;;;;;;;;;;5095073;28;20458;-73
2022/03/23 12:38:06;;;;;;;25.00;19.97;;;;;;;;;;5094725;28;20444;-73
2022/03/23 12:40:37;;;;;;;33.13;21.33;;;;;;;;;;5094552;28;20471;-73
2022/03/23 12:43:04;;;;;;;21.90;18.60;;;;;;;;;;5094255;28;20450;-73
2022/03/23 12:45:36;;;;;;;28.37;19.40;;;;;;;;;;5094214;28;20471;-74
2022/03/23 12:57:49;;;;;;;25.40;18.73;;;;;;;;;;5094687;28;20436;-73
2022/03/23 12:59:14;;;;;;;26.77;18.57;;;;;;;;;;5094217;28;20391;-67
2022/03/23 13:01:43;;;;;;;22.10;17.50;;;;;;;;;;5094405;28;20840;-67
2022/03/23 13:04:11;;;;;;;23.50;18.83;;;;;;;;;;5094359;28;20447;-67
2022/03/23 13:06:40;;;;;;;24.00;18.20;;;;;;;;;;5094040;28;20803;-70
2022/03/23 13:09:17;;;;;;;26.47;19.87;;;;;;;;;;5094356;28;20435;-70
2022/03/23 13:11:57;;;;;;;27.60;19.80;;;;;;;;;;5093950;28;20428;-70
2022/03/23 13:14:24;;;;;;;26.20;19.50;;;;;;;;;;5094549;28;20442;-70
2022/03/23 13:16:58;;;;;;;26.00;18.93;;;;;;;;;;5093271;28;20522;-70
2022/03/23 13:19:26;;;;;;;22.40;18.47;;;;;;;;;;5092544;28;20535;-70
2022/03/23 13:21:55;;;;;;;23.80;17.93;;;;;;;;;;5093312;28;20447;-68
2022/03/23 13:24:26;;;;;;;26.80;18.73;;;;;;;;;;5093199;28;20808;-70
2022/03/23 13:26:55;;;;;;;22.70;18.10;;;;;;;;;;5093758;28;20447;-71
2022/03/23 13:29:25;;;;;;;23.17;17.50;;;;;;;;;;5092390;28;20497;-71
2022/03/23 13:31:54;;;;;;;22.73;18.43;;;;;;;;;;5093428;28;20443;-71
2022/03/23 13:34:22;;;;;;;22.70;16.87;;;;;;;;;;5092865;28;20440;-71
2022/03/23 13:36:51;;;;;;;22.03;18.33;;;;;;;;;;5092805;28;20951;-71
2022/03/23 13:39:19;;;;;;;26.77;18.53;;;;;;;;;;5092940;28;20452;-70
2022/03/23 13:47:32;;;;;;;24.30;15.30;;;;;;;;;;5092679;28;20842;-71
2022/03/23 13:50:01;;;;;;;24.73;17.40;;;;;;;;;;5093600;28;20428;-70
2022/03/23 13:52:29;;;;;;;24.10;18.70;;;;;;;;;;5092797;28;20492;-70
2022/03/23 13:54:57;;;;;;;20.40;16.60;;;;;;;;;;5093451;28;20444;-70
2022/03/23 13:57:30;;;;;;;22.17;17.03;;;;;;;;;;5093275;28;20547;-70
2022/03/23 13:59:57;;;;;;;20.63;16.40;;;;;;;;;;5093115;28;20568;-70
2022/03/23 14:02:25;;;;;;;19.70;15.27;;;;;;;;;;5093291;28;20530;-70
2022/03/23 14:04:53;;;;;;;25.77;16.47;;;;;;;;;;5093109;28;20442;-70
2022/03/23 14:07:21;;;;;;;23.97;17.53;;;;;;;;;;5093314;28;20455;-70
2022/03/23 14:09:48;;;;;;;20.93;16.43;;;;;;;;;;5093046;28;20507;-71
2022/03/23 14:12:17;;;;;;;19.60;15.60;;;;;;;;;;5092270;28;20450;-71
2022/03/23 14:14:45;;;;;;;20.03;15.70;;;;;;;;;;5092843;28;20452;-71
2022/03/23 14:17:18;;;;;;;17.93;16.00;;;;;;;;;;5093542;28;20444;-70
2022/03/23 14:19:46;;;;;;;18.27;14.30;;;;;;;;;;5092798;28;20433;-70
2022/03/23 14:22:16;;;;;;;21.67;14.60;;;;;;;;;;5093206;28;20428;-70
2022/03/23 14:24:43;;;;;;;19.80;15.70;;;;;;;;;;5093139;28;20440;-70
2022/03/23 14:27:14;;;;;;;19.97;16.47;;;;;;;;;;5093074;28;20442;-70
2022/03/23 14:29:42;;;;;;;16.90;14.43;;;;;;;;;;5092530;28;20444;-70
2022/03/23 14:32:12;;;;;;;17.67;15.77;;;;;;;;;;5092346;28;20439;-70
2022/03/23 14:34:39;;;;;;;18.00;16.10;;;;;;;;;;5092736;28;20440;-71
2022/03/23 14:37:08;;;;;;;21.67;16.27;;;;;;;;;;5093130;28;20530;-67
2022/03/23 14:39:43;;;;;;;22.70;16.70;;;;;;;;;;5093744;28;20444;-68
2022/03/23 14:42:11;;;;;;;20.50;17.10;;;;;;;;;;5096845;28;20447;-70
2022/03/23 14:44:39;;;;;;;27.93;19.10;;;;;;;;;;5096175;28;20440;-71
2022/03/23 14:47:09;;;;;;;28.57;21.87;;;;;;;;;;5096498;28;20529;-71
2022/03/23 14:49:38;;;;;;;26.83;20.87;;;;;;;;;;5097069;28;20444;-70
2022/03/23 14:52:05;;;;;;;22.77;19.63;;;;;;;;;;5095553;28;20436;-70
2022/03/23 14:54:33;;;;;;;25.40;20.77;;;;;;;;;;5096796;28;20448;-70
2022/03/23 14:57:01;;;;;;;24.00;19.10;;;;;;;;;;5096831;28;20444;-71
2022/03/23 14:59:31;;;;;;;26.20;17.97;;;;;;;;;;5096357;28;20447;-70
2022/03/23 15:01:59;;;;;;;26.23;18.83;;;;;;;;;;5095691;28;20803;-71
2022/03/23 15:04:27;;;;;;;25.77;18.67;;;;;;;;;;5096122;28;20444;-71